• Join FlightAware (Why Join?)
  • Login
  • US Flag 
04:41AM EST


 

Airport Tracker/Info


-or-


 

Live Flight TrackerFlight Track Log ✈ FFT933 ✈ 06-Sep-2013 ✈ KTTN - KATL

Flight Track Log - Related Links

Times and Time Zones

All times are in EDT time to prevent confusion due to time zone crossing. See the FFT933 flight status page for this flight to view local times or setup timezone preferences in your user account.

Time Position Orientation Groundspeed Altitude Reporting Facility
EDT Latitude Longitude Course Direction KTS MPH feet Rate Location/Type
03:01PM 40.2220 -74.8840 225° Southwest 217 250 2,800  Level FlightAware
03:01PM 40.2060 -74.9050 225° Southwest 246 283 3,600 2,400 Climbing FlightAware
03:02PM 40.1860 -74.9300 224° Southwest 267 307 4,600 3,120 Climbing FlightAware
03:02PM 40.1670 -74.9540 224° Southwest 265 305 5,900 3,060 Climbing FlightAware
03:02PM 40.1540 -74.9710 225° Southwest 275 316 6,500 1,320 Climbing FlightAware
03:03PM 40.1320 -75.0010 226° Southwest 279 321 6,800 720 Climbing FlightAware
03:03PM 40.1320 -75.0010 226° Southwest 279 321 6,800  Level FlightAware
03:03PM 40.1220 -75.0140 225° Southwest 278 320 6,800  Level FlightAware
03:03PM 40.1220 -75.0140 225° Southwest 278 320 6,800  Level FlightAware
03:03PM 40.0990 -75.0450 226° Southwest 280 322 6,800  Level FlightAware
03:03PM 40.0990 -75.0450 226° Southwest 280 322 6,800  Level FlightAware
03:03PM 40.0820 -75.0670 225° Southwest 280 322 6,800  Level FlightAware
03:03PM 40.0820 -75.0670 225° Southwest 280 322 6,800  Level FlightAware
03:04PM 40.0660 -75.0880 225° Southwest 278 320 6,800  Level FlightAware
03:04PM 40.0660 -75.0880 225° Southwest 278 320 6,800 1,080 Level FlightAware
03:04PM 40.0450 -75.1160 226° Southwest 278 320 7,200 1,080 Climbing FlightAware
03:04PM 40.0450 -75.1160 226° Southwest 278 320 7,200 2,760 Level FlightAware
03:04PM 40.0350 -75.1410 242° Southwest 285 328 7,900 2,760 Climbing FlightAware
03:04PM 40.0350 -75.1410 242° Southwest 285 328 7,900 3,300 Level FlightAware
03:05PM 40.0250 -75.1730 248° West 287 330 9,000 3,300 Climbing FlightAware
03:05PM 40.0250 -75.1730 248° West 287 330 9,000 1,800 Level FlightAware
03:05PM 40.0160 -75.2060 250° West 287 330 9,600 1,800 Climbing FlightAware
03:05PM 40.0160 -75.2060 250° West 287 330 9,600 600 Level FlightAware
03:05PM 40.0060 -75.2370 247° West 291 335 9,800 600 Climbing FlightAware
03:05PM 40.0060 -75.2370 247° West 291 335 9,800  Level FlightAware
03:06PM 39.9970 -75.2610 244° Southwest 292 336 9,800  Level FlightAware
03:06PM 39.9970 -75.2610 244° Southwest 292 336 9,800  Level FlightAware
03:06PM 39.9900 -75.2720 230° Southwest 293 337 9,800  Level FlightAware
03:06PM 39.9900 -75.2720 230° Southwest 293 337 9,800  Level FlightAware
03:06PM 39.9790 -75.2870 226° Southwest 295 339 9,800  Level FlightAware
03:06PM 39.9790 -75.2870 226° Southwest 295 339 9,800  Level FlightAware
03:06PM 39.9570 -75.3180 227° Southwest 295 339 9,800  Level FlightAware
03:06PM 39.9570 -75.3180 227° Southwest 295 339 9,800  Level FlightAware
03:07PM 39.9410 -75.3400 227° Southwest 294 338 9,800  Level FlightAware
03:07PM 39.9410 -75.3400 227° Southwest 294 338 9,800  Level FlightAware
03:07PM 39.9220 -75.3680 229° Southwest 294 338 9,800  Level FlightAware
03:07PM 39.9220 -75.3680 229° Southwest 294 338 9,800  Level FlightAware
03:07PM 39.8980 -75.4020 227° Southwest 295 339 9,800  Level FlightAware
03:07PM 39.8980 -75.4020 227° Southwest 295 339 9,800  Level FlightAware
03:08PM 39.8870 -75.4300 243° Southwest 291 335 9,800  Level FlightAware
03:08PM 39.8870 -75.4300 243° Southwest 291 335 9,800  Level FlightAware
03:08PM 39.8850 -75.4440 259° West 291 335 9,800  Level FlightAware
03:08PM 39.8850 -75.4440 259° West 291 335 9,800  Level FlightAware
03:08PM 39.8800 -75.4800 260° West 292 336 9,800  Level FlightAware
03:08PM 39.8800 -75.4800 260° West 292 336 9,800  Level FlightAware
03:09PM 39.8750 -75.5150 259° West 307 353 9,800  Level FlightAware
03:09PM 39.8750 -75.5150 259° West 307 353 9,800  Level FlightAware
03:09PM 39.8690 -75.5640 261° West 326 375 9,800  Level FlightAware
03:09PM 39.8690 -75.5640 261° West 326 375 9,800 1,920 Level FlightAware
03:10PM 39.8590 -75.6390 260° West 330 380 11,000 1,920 Climbing FlightAware
03:10PM 39.8590 -75.6390 260° West 330 380 11,000 3,120 Level FlightAware
03:10PM 39.8500 -75.7080 260° West 335 386 12,800 3,120 Climbing FlightAware
03:10PM 39.8500 -75.7080 260° West 335 386 12,800 3,180 Level FlightAware
03:10PM 39.8470 -75.7340 261° West 335 386 13,500 3,180 Climbing FlightAware
03:10PM 39.8470 -75.7340 261° West 335 386 13,500 2,520 Level FlightAware
03:11PM 39.8340 -75.8300 260° West 347 399 15,600 2,520 Climbing FlightAware
03:11PM 39.8340 -75.8300 260° West 347 399 15,600 1,860 Level FlightAware
03:12PM 39.8250 -75.9110 262° West 349 402 16,800 1,860 Climbing FlightAware
03:12PM 39.8250 -75.9110 262° West 349 402 16,800  Level FlightAware
03:12PM 39.8180 -75.9780 262° West 351 404 16,800  Level FlightAware
03:12PM 39.8180 -75.9780 262° West 351 404 16,800 1,020 Level FlightAware
03:13PM 39.8080 -76.0610 261° West 357 411 17,500 1,020 Climbing FlightAware
03:13PM 39.8080 -76.0610 261° West 357 411 17,500 2,460 Level FlightAware
03:14PM 39.8010 -76.1260 262° West 362 417 18,800 2,460 Climbing FlightAware
03:14PM 39.8010 -76.1260 262° West 362 417 18,800 2,460 Level FlightAware
03:14PM 39.7840 -76.2030 254° West 374 430 20,300 2,460 Climbing FlightAware
03:14PM 39.7840 -76.2030 254° West 374 430 20,300 1,860 Level FlightAware
03:15PM 39.7460 -76.2650 231° Southwest 387 445 21,400 1,860 Climbing FlightAware
03:15PM 39.7460 -76.2650 231° Southwest 387 445 21,400 2,100 Level FlightAware
03:15PM 39.7050 -76.3330 232° Southwest 394 453 22,700 2,100 Climbing FlightAware
03:15PM 39.7050 -76.3330 232° Southwest 394 453 22,700 1,800 Level FlightAware
03:16PM 39.6670 -76.3940 231° Southwest 402 463 23,700 1,800 Climbing FlightAware
03:16PM 39.6670 -76.3940 231° Southwest 402 463 23,700 1,800 Level FlightAware
03:17PM 39.6250 -76.4610 231° Southwest 408 470 24,800 1,800 Climbing FlightAware
03:17PM 39.6250 -76.4610 231° Southwest 408 470 24,800 1,620 Level FlightAware
03:17PM 39.5820 -76.5300 231° Southwest 416 479 25,800 1,620 Climbing FlightAware
03:17PM 39.5820 -76.5300 231° Southwest 416 479 25,800 1,920 Level FlightAware
03:18PM 39.5400 -76.5970 231° Southwest 418 481 26,900 1,920 Climbing FlightAware
03:18PM 39.5400 -76.5970 231° Southwest 418 481 26,900 1,560 Level FlightAware
03:18PM 39.4980 -76.6640 231° Southwest 425 489 27,800 1,560 Climbing FlightAware
03:18PM 39.4980 -76.6640 231° Southwest 425 489 27,800 1,500 Level FlightAware
03:19PM 39.4520 -76.7360 230° Southwest 431 496 28,700 1,500 Climbing FlightAware
03:19PM 39.4520 -76.7360 230° Southwest 431 496 28,700 1,560 Level FlightAware
03:19PM 39.4100 -76.8030 231° Southwest 434 499 29,600 1,560 Climbing FlightAware
03:19PM 39.4100 -76.8030 231° Southwest 434 499 29,600 1,140 Level FlightAware
03:20PM 39.3630 -76.8770 231° Southwest 442 509 30,300 1,140 Climbing FlightAware
03:20PM 39.3630 -76.8770 231° Southwest 442 509 30,300 1,320 Level FlightAware
03:21PM 39.3180 -76.9480 231° Southwest 444 511 31,100 1,320 Climbing FlightAware
03:21PM 39.3180 -76.9480 231° Southwest 444 511 31,100 1,260 Level FlightAware
03:21PM 39.2760 -77.0140 231° Southwest 445 512 31,800 1,260 Climbing FlightAware
03:21PM 39.2760 -77.0140 231° Southwest 445 512 31,800 960 Level FlightAware
03:22PM 39.2280 -77.0910 231° Southwest 453 521 32,400 960 Climbing FlightAware
03:22PM 39.2280 -77.0910 231° Southwest 453 521 32,400 1,320 Level FlightAware
03:22PM 39.1800 -77.1660 230° Southwest 456 525 33,200 1,320 Climbing FlightAware
03:22PM 39.1800 -77.1660 230° Southwest 456 525 33,200 1,380 Level FlightAware
03:23PM 39.1350 -77.2350 230° Southwest 454 522 34,000 1,380 Climbing FlightAware
03:23PM 39.1350 -77.2350 230° Southwest 454 522 34,000 1,620 Level FlightAware
03:24PM 39.0860 -77.3120 231° Southwest 447 514 35,000 1,620 Climbing FlightAware
03:24PM 39.0860 -77.3120 231° Southwest 447 514 35,000 1,740 Level FlightAware
03:24PM 39.0420 -77.3810 231° Southwest 440 506 36,000 1,740 Climbing FlightAware
03:24PM 39.0420 -77.3810 231° Southwest 440 506 36,000 780 Level FlightAware
03:25PM 38.9950 -77.4530 230° Southwest 444 511 36,500 780 Climbing FlightAware
03:25PM 38.9950 -77.4530 230° Southwest 444 511 36,500 1,080 Level FlightAware
03:25PM 38.9540 -77.5170 231° Southwest 442 509 37,100 1,080 Climbing FlightAware
03:25PM 38.9540 -77.5170 231° Southwest 442 509 37,100 1,080 Level FlightAware
03:26PM 38.9070 -77.5900 230° Southwest 436 502 37,800 1,080 Climbing FlightAware
03:26PM 38.9070 -77.5900 230° Southwest 436 502 37,800 480 Level FlightAware
03:26PM 38.8580 -77.6640 230° Southwest 433 498 38,100 480 Climbing FlightAware
03:26PM 38.8580 -77.6640 230° Southwest 433 498 38,100  Level FlightAware
03:27PM 38.8150 -77.7310 231° Southwest 434 499 38,100  Level FlightAware
03:27PM 38.8150 -77.7310 231° Southwest 434 499 38,100 -240 Level FlightAware
03:28PM 38.7730 -77.7950 230° Southwest 435 501 38,000 -240 Descending FlightAware
03:28PM 38.7730 -77.7950 230° Southwest 435 501 38,000 120 Level FlightAware
03:28PM 38.7240 -77.8700 230° Southwest 435 501 38,100 120 Climbing FlightAware
03:28PM 38.7240 -77.8700 230° Southwest 435 501 38,100 -240 Level FlightAware
03:29PM 38.6830 -77.9330 230° Southwest 435 501 38,000 -240 Descending FlightAware
03:29PM 38.6830 -77.9330 230° Southwest 435 501 38,000  Level FlightAware
03:29PM 38.6360 -78.0050 230° Southwest 435 501 38,000  Level FlightAware
03:29PM 38.6360 -78.0050 230° Southwest 435 501 38,000  Level FlightAware
03:30PM 38.5910 -78.0740 230° Southwest 437 503 38,000  Level FlightAware
03:30PM 38.5910 -78.0740 230° Southwest 437 503 38,000 120 Level FlightAware
03:31PM 38.5420 -78.1480 230° Southwest 438 504 38,100 120 Climbing FlightAware
03:31PM 38.5420 -78.1480 230° Southwest 438 504 38,100  Level FlightAware
03:31PM 38.4990 -78.2140 230° Southwest 438 504 38,100  Level FlightAware
03:31PM 38.4990 -78.2140 230° Southwest 438 504 38,100  Level FlightAware
03:32PM 38.4540 -78.2820 230° Southwest 439 505 38,100  Level FlightAware
03:32PM 38.4540 -78.2820 230° Southwest 439 505 38,100  Level FlightAware
03:32PM 38.4060 -78.3530 229° Southwest 439 505 38,100  Level FlightAware
03:32PM 38.4060 -78.3530 229° Southwest 439 505 38,100  Level FlightAware
03:33PM 38.3680 -78.4110 230° Southwest 439 505 38,100  Level FlightAware
03:33PM 38.3680 -78.4110 230° Southwest 439 505 38,100  Level FlightAware
03:33PM 38.3120 -78.4960 230° Southwest 439 505 38,100  Level FlightAware
03:33PM 38.3120 -78.4960 230° Southwest 439 505 38,100  Level FlightAware
03:34PM 38.2690 -78.5590 229° Southwest 439 505 38,100  Level FlightAware
03:34PM 38.2690 -78.5590 229° Southwest 439 505 38,100  Level FlightAware
03:35PM 38.2200 -78.6320 230° Southwest 439 505 38,100  Level FlightAware
03:35PM 38.2200 -78.6320 230° Southwest 439 505 38,100  Level FlightAware
03:35PM 38.1780 -78.6960 230° Southwest 439 505 38,100  Level FlightAware
03:35PM 38.1780 -78.6960 230° Southwest 439 505 38,100  Level FlightAware
03:36PM 38.1300 -78.7670 229° Southwest 438 504 38,100  Level FlightAware
03:36PM 38.1300 -78.7670 229° Southwest 438 504 38,100 -240 Level FlightAware
03:36PM 38.0880 -78.8300 230° Southwest 439 505 38,000 -240 Descending FlightAware
03:36PM 38.0880 -78.8300 230° Southwest 439 505 38,000  Level FlightAware
03:37PM 38.0420 -78.8980 229° Southwest 439 505 38,000  Level FlightAware
03:37PM 38.0420 -78.8980 229° Southwest 439 505 38,000  Level FlightAware
03:37PM 37.9930 -78.9710 230° Southwest 439 505 38,000  Level FlightAware
03:37PM 37.9930 -78.9710 230° Southwest 439 505 38,000  Level FlightAware
03:38PM 37.9470 -79.0390 229° Southwest 441 507 38,000  Level FlightAware
03:38PM 37.9470 -79.0390 229° Southwest 441 507 38,000 120 Level FlightAware
03:39PM 37.8980 -79.1100 229° Southwest 441 507 38,100 120 Climbing FlightAware
03:39PM 37.8980 -79.1100 229° Southwest 441 507 38,100  Level FlightAware
03:39PM 37.8510 -79.1760 228° Southwest 442 509 38,100  Level FlightAware
03:39PM 37.8510 -79.1760 228° Southwest 442 509 38,100  Level FlightAware
03:40PM 37.8070 -79.2380 228° Southwest 443 510 38,100  Level FlightAware
03:40PM 37.8070 -79.2380 228° Southwest 443 510 38,100  Level FlightAware
03:40PM 37.7550 -79.3090 227° Southwest 443 510 38,100  Level FlightAware
03:40PM 37.7550 -79.3090 227° Southwest 443 510 38,100  Level FlightAware
03:41PM 37.7070 -79.3750 227° Southwest 441 507 38,100  Level FlightAware
03:41PM 37.7070 -79.3750 227° Southwest 441 507 38,100  Level FlightAware
03:42PM 37.6650 -79.4340 228° Southwest 441 507 38,100  Level FlightAware
03:42PM 37.6650 -79.4340 228° Southwest 441 507 38,100 -180 Level FlightAware
03:42PM 37.6120 -79.5070 228° Southwest 437 503 38,000 -180 Descending FlightAware
03:42PM 37.6120 -79.5070 228° Southwest 437 503 38,000  Level FlightAware
03:43PM 37.5530 -79.5880 227° Southwest 436 502 38,000  Level FlightAware
03:43PM 37.5530 -79.5880 227° Southwest 436 502 38,000  Level FlightAware
03:43PM 37.5090 -79.6480 227° Southwest 436 502 38,000  Level FlightAware
03:43PM 37.5090 -79.6480 227° Southwest 436 502 38,000  Level FlightAware
03:44PM 37.4610 -79.7150 228° Southwest 438 504 38,000  Level FlightAware
03:44PM 37.4610 -79.7150 228° Southwest 438 504 38,000  Level FlightAware
03:45PM 37.4160 -79.7760 227° Southwest 432 497 38,000  Level FlightAware
03:45PM 37.4160 -79.7760 227° Southwest 432 497 38,000  Level FlightAware
03:45PM 37.3710 -79.8400 229° Southwest 432 497 38,000  Level FlightAware
03:45PM 37.3710 -79.8400 229° Southwest 432 497 38,000  Level FlightAware
03:46PM 37.3290 -79.8980 228° Southwest 432 497 38,000  Level FlightAware
03:46PM 37.3290 -79.8980 228° Southwest 432 497 38,000 60 Level FlightAware
03:47PM 37.2390 -80.0170 226° Southwest 438 504 38,100 60 Climbing FlightAware
03:47PM 37.2390 -80.0170 226° Southwest 438 504 38,100  Level FlightAware
03:47PM 37.1990 -80.0710 227° Southwest 438 504 38,100  Level FlightAware
03:47PM 37.1990 -80.0710 227° Southwest 438 504 38,100  Level FlightAware
03:48PM 37.1570 -80.1280 227° Southwest 438 504 38,100  Level FlightAware
03:48PM 37.1570 -80.1280 227° Southwest 438 504 38,100 -120 Level FlightAware
03:49PM 37.0514 -80.2678 227° Southwest 432 497 38,000 -60 Descending Atlanta Center
03:50PM 36.9692 -80.3758 226° Southwest 432 497 38,000  Level Atlanta Center
03:51PM 36.8850 -80.4886 227° Southwest 432 497 38,100  Climbing Atlanta Center
03:52PM 36.7944 -80.6119 228° Southwest 437 503 38,100  Level Atlanta Center
03:53PM 36.7161 -80.7189 228° Southwest 432 497 38,100 -60 Level Atlanta Center
03:54PM 36.6336 -80.8258 226° Southwest 432 497 38,000 -60 Descending Atlanta Center
03:55PM 36.5531 -80.9350 227° Southwest 432 497 38,000  Level Atlanta Center
03:56PM 36.4781 -81.0308 226° Southwest 427 491 38,000  Level Atlanta Center
03:57PM 36.3994 -81.1394 228° Southwest 433 498 38,000  Level Atlanta Center
03:58PM 36.3164 -81.2481 227° Southwest 433 498 38,100  Climbing Atlanta Center
03:59PM 36.2333 -81.3567 227° Southwest 433 498 38,100  Level Atlanta Center
04:00PM 36.1503 -81.4672 227° Southwest 433 498 38,100  Level Atlanta Center
04:01PM 36.0647 -81.5728 225° Southwest 433 498 38,100  Level Atlanta Center
04:02PM 35.9836 -81.6856 228° Southwest 438 504 38,100 -60 Level Atlanta Center
04:03PM 35.8981 -81.7958 226° Southwest 438 504 38,000 -60 Descending Atlanta Center
04:04PM 35.8144 -81.9006 225° Southwest 433 498 38,000 -420 Level Atlanta Center
04:05PM 35.7308 -82.0100 227° Southwest 439 505 37,200 -900 Descending Atlanta Center
04:06PM 35.6447 -82.1169 225° Southwest 434 499 36,200 -1,020 Descending Atlanta Center
04:07PM 35.5506 -82.2367 226° Southwest 434 499 35,200 -600 Descending Atlanta Center
04:08PM 35.4644 -82.3456 226° Southwest 439 505 35,000 -480 Descending Atlanta Center
04:09PM 35.3783 -82.4544 226° Southwest 439 505 34,300 -960 Descending Atlanta Center
04:10PM 35.2919 -82.5603 225° Southwest 439 505 33,100 -1,140 Descending Atlanta Center
04:11PM 35.2119 -82.6583 225° Southwest 431 496 32,100 -1,140 Descending Atlanta Center
04:12PM 35.1294 -82.7639 226° Southwest 426 490 30,900 -1,260 Descending Atlanta Center
04:13PM 35.0489 -82.8464 220° Southwest 426 490 29,600 -1,320 Descending Atlanta Center
04:14PM 34.9622 -82.9336 220° Southwest 421 484 28,300 -1,320 Descending Atlanta Center
04:15PM 34.8794 -83.0233 222° Southwest 414 476 27,000 -1,320 Descending Atlanta Center
04:16PM 34.7906 -83.1106 219° Southwest 409 471 25,700 -1,260 Descending Atlanta Center
04:17PM 34.7117 -83.1997 223° Southwest 393 452 24,500 -900 Descending Atlanta Center
04:18PM 34.6186 -83.2967 221° Southwest 417 480 24,000 -480 Descending Atlanta Center
04:19PM 34.5314 -83.3806 218° Southwest 436 502 23,600 -1,500 Descending Atlanta Center
04:20PM 34.4214 -83.5000 222° Southwest 450 518 21,100 -2,340 Descending Atlanta Center
04:21PM 34.3319 -83.5936 221° Southwest 443 510 19,000 -1,860 Descending Atlanta Center
04:22PM 34.2425 -83.6844 220° Southwest 431 496 17,400 -1,740 Descending Atlanta Center
04:23PM 34.1572 -83.7728 221° Southwest 421 484 15,600 -1,740 Descending Atlanta Center
04:24PM 34.0739 -83.8583 220° Southwest 411 473 14,000 -1,800 Descending Atlanta Center
04:25PM 33.9903 -83.9486 222° Southwest 404 465 12,100 -1,020 Descending Atlanta Center
04:26PM 33.9092 -84.0139 214° Southwest 404 465 12,000 -60 Descending Atlanta Center
04:27PM 33.8150 -84.0789 210° Southwest 396 456 12,000  Level Atlanta Center
04:28PM 33.7378 -84.1461 216° Southwest 373 429 12,000  Level Atlanta Center
04:29PM 33.7314 -84.2336 265° West 274 315 12,000 -240 Level Atlanta Center
04:30PM 33.7314 -84.3186 270° West 258 297 11,600 -1,080 Descending Atlanta Center
04:31PM 33.7333 -84.4333 271° West 257 296 9,700 -1,680 Descending Atlanta TRACON
04:32PM 33.7333 -84.5000 270° West 247 284 8,300 -1,620 Descending Atlanta TRACON
04:33PM 33.7333 -84.5833 270° West 239 275 6,700 -1,560 Descending Atlanta TRACON
04:34PM 33.7333 -84.6500 270° West 237 273 5,400 -1,380 Descending Atlanta TRACON
04:35PM 33.6833 -84.6667 196° South 241 277 4,100 -840 Descending Atlanta TRACON
04:36PM 33.6500 -84.6167 129° Southeast 200 230 3,800 -660 Descending Atlanta TRACON
04:37PM 33.6500 -84.5667 90° East 197 227 2,900 -900 Descending Atlanta TRACON
04:38PM 33.6500 -84.5000 90° East 160 184 2,100 -780 Descending Atlanta TRACON
04:39PM 33.6500 -84.4500 90° East 132 152 1,300 -780 Descending Atlanta TRACON